Sakaide Maru — 3EYR6 — position and weather

sailwx.info

Track history (hours):
 
Tides and Currents Weather Stations Pressure Air Temp Water Temp Dewpoint Dewpoint Depression Visibility Wind Speed Wind Dir Waves Ship Positions

Sakaide Maru

Last reported at 2018-Jan-05 10:59 UTC. Time now 2018-Jan-18 06:07 UTC.
Position N 33°45' E 135°01'.
Warning: this ship's position is 12 days out of date.

Length 255 m; draft 7.9 m.

Type: Ship. MMSI: 354898000.

Date/timePositionNaut miles runAvg speedWind from/ knotsBaromVisibWave heightAir tempDewpointWater temp
2018-Jan-05 10:59N 33°45' E 135°01'613.1
2018-Jan-05 10:30N 33°51' E 134°59'612.9
2018-Jan-05 10:00N 33°58' E 134°57'713.0
2018-Jan-05 09:30N 34°04' E 134°57'713.2
2018-Jan-05 09:00N 34°11' E 134°57'612.5
2018-Jan-05 08:30N 34°17' E 134°58'713.5
2018-Jan-05 08:00N 34°23' E 135°00'714.4
2018-Jan-05 07:30N 34°30' E 135°04'510.4
2018-Jan-05 07:00N 34°34' E 135°07'510.0
2018-Jan-05 06:30N 34°37' E 135°01'714.2
2018-Jan-05 06:00N 34°35' E 134°53'713.3
2018-Jan-05 05:30N 34°32' E 134°46'713.5
2018-Jan-05 05:00N 34°29' E 134°38'713.7
2018-Jan-05 04:30N 34°27' E 134°30'713.8
2018-Jan-05 04:00N 34°24' E 134°23'713.3
2018-Jan-05 03:30N 34°24' E 134°15'2011.0
2018-Jan-05 01:42N 34°23' E 133°51'  
2017-Dec-31 21:01N 34°30' E 134°37'612.3
2017-Dec-31 20:31N 34°32' E 134°44'713.3
2017-Dec-31 20:01N 34°35' E 134°52'713.0
2017-Dec-31 19:30N 34°38' E 134°59'611.3
2017-Dec-31 19:00N 34°35' E 135°05'3 6.3
2017-Dec-31 18:30N 34°34' E 135°09'4 7.8
2017-Dec-31 18:00N 34°31' E 135°06'5 9.1
2017-Dec-31 17:30N 34°26' E 135°04'510.8
2017-Dec-31 17:00N 34°21' E 135°02'510.8
2017-Dec-31 16:30N 34°16' E 134°59'5 9.6
2017-Dec-31 16:00N 34°12' E 135°00'3 6.7
2017-Dec-31 15:30N 34°08' E 134°59'2 3.7
2017-Dec-31 15:00N 34°07' E 134°58'2 4.6
2017-Dec-31 14:30N 34°04' E 134°58'3 5.2
2017-Dec-31 14:00N 34°02' E 134°58'2 3.7
2017-Dec-31 13:30N 33°60' E 134°58'4 8.1
2017-Dec-31 13:00N 33°56' E 134°58'2 4.5
2017-Dec-31 12:30N 33°53' E 134°58'3 5.6
2017-Dec-31 12:00N 33°51' E 134°59'4 7.5
2017-Dec-31 11:30N 33°47' E 134°60'510.0
2017-Dec-31 11:00N 33°42' E 135°02'610.4
2017-Dec-31 10:28N 33°37' E 135°03'4 8.8
2017-Dec-31 10:00N 33°33' E 135°05'16 5.8
2017-Dec-31 07:15N 33°19' E 135°13'  
Track history (hours):
 
Tides and Currents Weather Stations Pressure Air Temp Water Temp Dewpoint Dewpoint Depression Visibility Wind Speed Wind Dir Waves Ship Positions

Sakaide Maru

Last reported at 2018-Jan-05 10:59 UTC. Time now 2018-Jan-18 06:07 UTC.
Position N 33°45' E 135°01'.
Warning: this ship's position is 12 days out of date.

Length 255 m; draft 7.9 m.

Type: Ship. MMSI: 354898000.

Date/timePositionNaut miles runAvg speedWind from/ knotsBaromVisibWave heightAir tempDewpointWater temp
2018-Jan-05 10:59N 33°45' E 135°01'613.1
2018-Jan-05 10:30N 33°51' E 134°59'612.9
2018-Jan-05 10:00N 33°58' E 134°57'713.0
2018-Jan-05 09:30N 34°04' E 134°57'713.2
2018-Jan-05 09:00N 34°11' E 134°57'612.5
2018-Jan-05 08:30N 34°17' E 134°58'713.5
2018-Jan-05 08:00N 34°23' E 135°00'714.4
2018-Jan-05 07:30N 34°30' E 135°04'510.4
2018-Jan-05 07:00N 34°34' E 135°07'510.0
2018-Jan-05 06:30N 34°37' E 135°01'714.2
2018-Jan-05 06:00N 34°35' E 134°53'713.3
2018-Jan-05 05:30N 34°32' E 134°46'713.5
2018-Jan-05 05:00N 34°29' E 134°38'713.7
2018-Jan-05 04:30N 34°27' E 134°30'713.8
2018-Jan-05 04:00N 34°24' E 134°23'713.3
2018-Jan-05 03:30N 34°24' E 134°15'2011.0
2018-Jan-05 01:42N 34°23' E 133°51'  
2017-Dec-31 21:01N 34°30' E 134°37'612.3
2017-Dec-31 20:31N 34°32' E 134°44'713.3
2017-Dec-31 20:01N 34°35' E 134°52'713.0
2017-Dec-31 19:30N 34°38' E 134°59'611.3
2017-Dec-31 19:00N 34°35' E 135°05'3 6.3
2017-Dec-31 18:30N 34°34' E 135°09'4 7.8
2017-Dec-31 18:00N 34°31' E 135°06'5 9.1
2017-Dec-31 17:30N 34°26' E 135°04'510.8
2017-Dec-31 17:00N 34°21' E 135°02'510.8
2017-Dec-31 16:30N 34°16' E 134°59'5 9.6
2017-Dec-31 16:00N 34°12' E 135°00'3 6.7
2017-Dec-31 15:30N 34°08' E 134°59'2 3.7
2017-Dec-31 15:00N 34°07' E 134°58'2 4.6
2017-Dec-31 14:30N 34°04' E 134°58'3 5.2
2017-Dec-31 14:00N 34°02' E 134°58'2 3.7
2017-Dec-31 13:30N 33°60' E 134°58'4 8.1
2017-Dec-31 13:00N 33°56' E 134°58'2 4.5
2017-Dec-31 12:30N 33°53' E 134°58'3 5.6
2017-Dec-31 12:00N 33°51' E 134°59'4 7.5
2017-Dec-31 11:30N 33°47' E 134°60'510.0
2017-Dec-31 11:00N 33°42' E 135°02'610.4
2017-Dec-31 10:28N 33°37' E 135°03'4 8.8
2017-Dec-31 10:00N 33°33' E 135°05'16 5.8
2017-Dec-31 07:15N 33°19' E 135°13'  

Dump ship's entire track history